createdAt,value
2023-05-15T00:01:50.751Z,8.30
2023-05-15T00:04:17.372Z,8.18
2023-05-15T00:06:44.178Z,8.43
2023-05-15T00:09:10.770Z,8.82
2023-05-15T00:11:37.412Z,9.32
2023-05-15T00:14:04.025Z,8.77
2023-05-15T00:16:30.701Z,7.03
2023-05-15T00:18:57.347Z,7.18
2023-05-15T00:21:24.012Z,7.75
2023-05-15T00:23:54.008Z,7.43
2023-05-15T00:26:23.275Z,7.65
2023-05-15T00:28:50.751Z,7.93
2023-05-15T00:31:17.508Z,8.43
2023-05-15T00:33:44.251Z,7.70
2023-05-15T00:36:10.929Z,11.27
2023-05-15T00:38:37.545Z,9.02
2023-05-15T00:41:06.378Z,6.85
2023-05-15T00:43:33.473Z,7.45
2023-05-15T00:46:01.972Z,9.38
2023-05-15T00:48:29.537Z,7.78
2023-05-15T00:50:58.999Z,7.80
2023-05-15T00:53:27.291Z,9.55
2023-05-15T00:55:57.353Z,8.07
2023-05-15T00:58:26.888Z,7.72
2023-05-15T01:03:20.730Z,7.75
2023-05-15T01:05:47.562Z,8.60
2023-05-15T01:08:37.747Z,10.98
2023-05-15T01:11:08.112Z,10.45
2023-05-15T01:13:34.963Z,10.40
2023-05-15T01:16:01.936Z,11.48
2023-05-15T01:18:32.431Z,8.77
2023-05-15T01:21:26.586Z,10.45
2023-05-15T01:24:32.207Z,11.52
2023-05-15T01:27:18.759Z,13.00
2023-05-15T01:30:18.930Z,10.98
2023-05-15T01:33:12.044Z,11.63
2023-05-15T01:35:43.832Z,11.30
2023-05-15T01:38:32.844Z,12.40
2023-05-15T01:41:06.153Z,11.15
2023-05-15T01:43:35.242Z,10.18
2023-05-15T01:46:02.984Z,11.65
2023-05-15T01:48:32.660Z,10.82
2023-05-15T01:53:32.067Z,10.05
2023-05-15T01:55:59.784Z,10.18
2023-05-15T01:58:28.162Z,9.77
2023-05-15T02:00:56.424Z,9.57
2023-05-15T02:03:23.727Z,10.65
2023-05-15T02:05:51.920Z,10.18
2023-05-15T02:08:20.582Z,9.73
2023-05-15T02:10:47.993Z,10.83
2023-05-15T02:13:16.892Z,10.40
2023-05-15T02:15:43.453Z,13.10
2023-05-15T02:18:10.118Z,13.55
2023-05-15T02:20:36.743Z,12.60
2023-05-15T02:23:03.331Z,11.23
2023-05-15T02:25:50.046Z,12.15
2023-05-15T02:28:33.931Z,11.35
2023-05-15T02:31:11.910Z,10.95
2023-05-15T02:33:55.810Z,10.38
2023-05-15T02:36:30.771Z,10.13
2023-05-15T02:38:59.550Z,10.23
2023-05-15T02:41:27.127Z,12.90
2023-05-15T02:43:55.516Z,11.23
2023-05-15T02:46:25.090Z,10.02
2023-05-15T02:48:54.074Z,10.23
2023-05-15T02:51:21.157Z,10.57
2023-05-15T02:53:48.563Z,13.40
2023-05-15T02:56:15.085Z,12.80
2023-05-15T02:58:42.104Z,11.75
2023-05-15T03:01:08.849Z,12.25
2023-05-15T03:03:35.584Z,12.73
2023-05-15T03:06:02.696Z,10.32
2023-05-15T03:08:29.376Z,11.10
2023-05-15T03:10:56.205Z,12.13
2023-05-15T03:13:22.852Z,12.57
2023-05-15T03:15:49.527Z,12.70
2023-05-15T03:18:18.950Z,11.73
2023-05-15T03:23:12.483Z,10.27
2023-05-15T03:25:39.035Z,12.60
2023-05-15T03:28:05.783Z,13.70
2023-05-15T03:30:32.395Z,12.30
2023-05-15T03:32:59.172Z,11.45
2023-05-15T03:35:27.071Z,10.40
2023-05-15T03:37:53.756Z,11.23
2023-05-15T03:40:20.457Z,19.02
2023-05-15T03:42:47.038Z,17.83
2023-05-15T03:45:13.694Z,14.35
2023-05-15T03:47:41.087Z,14.65
2023-05-15T03:50:07.946Z,12.82
2023-05-15T03:52:34.613Z,12.60
2023-05-15T03:55:01.663Z,17.42
2023-05-15T03:57:28.452Z,14.88
2023-05-15T03:59:55.110Z,14.27
2023-05-15T04:02:21.810Z,14.10
2023-05-15T04:04:48.762Z,12.45
2023-05-15T04:07:15.448Z,16.65
2023-05-15T04:09:41.999Z,16.48
2023-05-15T04:12:08.747Z,15.73
2023-05-15T04:14:35.546Z,16.73
2023-05-15T04:17:02.143Z,17.77
2023-05-15T04:19:28.790Z,13.85
2023-05-15T04:21:55.445Z,14.52
2023-05-15T04:24:22.084Z,14.32
2023-05-15T04:26:48.734Z,15.77
2023-05-15T04:29:15.614Z,13.82
2023-05-15T04:31:42.226Z,16.80
2023-05-15T04:34:08.919Z,20.85
2023-05-15T04:36:35.524Z,15.10
2023-05-15T04:39:02.099Z,14.68
2023-05-15T04:41:28.697Z,17.40
2023-05-15T04:43:55.419Z,15.02
2023-05-15T04:46:22.005Z,17.42
2023-05-15T04:48:48.604Z,19.27
2023-05-15T04:51:15.319Z,16.90
2023-05-15T04:53:41.964Z,18.52
2023-05-15T04:56:08.538Z,17.98
2023-05-15T04:58:35.474Z,17.30
2023-05-15T05:01:03.842Z,16.35
2023-05-15T05:03:31.117Z,15.68
2023-05-15T05:05:57.785Z,17.60
2023-05-15T05:08:24.375Z,17.20
2023-05-15T05:10:56.280Z,15.43
2023-05-15T05:13:22.918Z,15.60
2023-05-15T05:15:49.507Z,19.70
2023-05-15T05:18:16.213Z,15.63
2023-05-15T05:20:42.834Z,16.02
2023-05-15T05:23:09.458Z,17.02
2023-05-15T05:25:36.057Z,15.02
2023-05-15T05:28:02.702Z,17.75
2023-05-15T05:30:29.269Z,15.90
2023-05-15T05:32:56.090Z,14.43
2023-05-15T05:35:22.975Z,16.67
2023-05-15T05:37:49.688Z,16.45
2023-05-15T05:40:17.625Z,15.77
2023-05-15T05:42:44.289Z,16.35
2023-05-15T05:45:11.423Z,17.58
2023-05-15T05:47:38.118Z,17.65
2023-05-15T05:50:05.546Z,20.08
2023-05-15T05:52:32.324Z,16.20
2023-05-15T05:54:58.984Z,18.52
2023-05-15T05:57:25.951Z,14.73
2023-05-15T05:59:52.697Z,15.73
2023-05-15T06:02:19.584Z,15.88
2023-05-15T06:04:46.411Z,21.80
2023-05-15T06:07:13.031Z,18.17
2023-05-15T06:09:39.722Z,15.77
2023-05-15T06:12:08.371Z,17.45
2023-05-15T06:14:35.949Z,17.03
2023-05-15T06:17:02.673Z,17.30
2023-05-15T06:19:29.552Z,17.80
2023-05-15T06:21:56.117Z,20.13
2023-05-15T06:24:22.642Z,18.33
2023-05-15T06:26:50.451Z,15.63
2023-05-15T06:29:17.884Z,17.00
2023-05-15T06:31:44.416Z,17.27
2023-05-15T06:34:11.015Z,16.17
2023-05-15T06:36:37.730Z,18.08
2023-05-15T06:39:04.332Z,17.38
2023-05-15T06:41:32.024Z,18.95
2023-05-15T06:43:59.644Z,20.40
2023-05-15T06:46:26.320Z,20.20
2023-05-15T06:48:52.918Z,16.52
2023-05-15T06:51:19.604Z,21.25
2023-05-15T06:53:46.445Z,17.00
2023-05-15T06:56:13.041Z,20.13
2023-05-15T06:58:39.623Z,16.58
2023-05-15T07:01:07.123Z,16.17
2023-05-15T07:03:34.144Z,18.45
2023-05-15T07:06:00.792Z,18.13
2023-05-15T07:08:27.451Z,16.38
2023-05-15T07:10:54.039Z,18.27
2023-05-15T07:13:21.236Z,18.38
2023-05-15T07:15:47.877Z,19.13
2023-05-15T07:18:14.517Z,18.08
2023-05-15T07:20:41.156Z,19.40
2023-05-15T07:23:07.698Z,17.10
2023-05-15T07:25:34.376Z,18.52
2023-05-15T07:28:00.938Z,17.98
2023-05-15T07:30:27.720Z,19.95
2023-05-15T07:32:54.504Z,18.30
2023-05-15T07:35:21.135Z,20.70
2023-05-15T07:37:47.771Z,21.92
2023-05-15T07:40:15.567Z,28.00
2023-05-15T07:42:44.627Z,26.33
2023-05-15T07:45:11.438Z,26.70
2023-05-15T07:47:38.170Z,26.48
2023-05-15T07:50:05.249Z,31.30
2023-05-15T07:52:31.906Z,31.95
2023-05-15T07:54:58.450Z,31.27
2023-05-15T07:57:26.438Z,33.50
2023-05-15T07:59:53.194Z,31.92
2023-05-15T08:02:19.804Z,33.53
2023-05-15T08:04:46.540Z,33.33
2023-05-15T08:07:14.317Z,34.53
2023-05-15T08:09:41.378Z,36.78
2023-05-15T08:12:23.215Z,35.50
2023-05-15T08:14:50.268Z,35.70
2023-05-15T08:17:17.271Z,39.75
2023-05-15T08:19:43.896Z,42.67
2023-05-15T08:22:10.776Z,43.03
2023-05-15T08:24:38.207Z,43.25
2023-05-15T08:27:06.181Z,45.42
2023-05-15T08:29:33.431Z,54.60
2023-05-15T08:31:59.995Z,52.40
2023-05-15T08:34:27.150Z,47.65
2023-05-15T08:36:53.786Z,50.70
2023-05-15T08:39:20.497Z,52.05
2023-05-15T08:41:53.237Z,49.50
2023-05-15T08:44:21.143Z,49.80
2023-05-15T08:46:47.931Z,47.40
2023-05-15T08:50:00.519Z,44.40
2023-05-15T08:52:28.654Z,44.28
2023-05-15T08:54:55.286Z,40.42
2023-05-15T08:57:22.582Z,40.58
2023-05-15T08:59:51.152Z,42.65
2023-05-15T09:02:18.649Z,38.60
2023-05-15T09:04:45.396Z,42.50
2023-05-15T09:07:12.299Z,40.72
2023-05-15T09:09:39.855Z,42.95
2023-05-15T09:12:13.135Z,43.67
2023-05-15T09:14:39.984Z,43.35
2023-05-15T09:17:06.667Z,42.88
2023-05-15T09:19:42.583Z,45.50
2023-05-15T09:22:24.224Z,38.72
2023-05-15T09:24:53.202Z,41.33
2023-05-15T09:27:20.592Z,43.67
2023-05-15T09:29:47.335Z,42.22
2023-05-15T09:32:14.841Z,44.42
2023-05-15T09:34:44.308Z,43.05
2023-05-15T09:39:43.117Z,42.38
2023-05-15T09:42:11.719Z,42.20
2023-05-15T09:44:46.254Z,43.97
2023-05-15T09:47:14.197Z,43.63
2023-05-15T09:49:44.672Z,41.60
2023-05-15T09:52:11.580Z,40.42
2023-05-15T09:54:38.718Z,41.28
2023-05-15T09:57:10.417Z,43.65
2023-05-15T09:59:43.762Z,40.95
2023-05-15T10:02:14.427Z,43.15
2023-05-15T10:04:41.031Z,41.78
2023-05-15T10:07:08.948Z,39.80
2023-05-15T10:09:35.597Z,43.83
2023-05-15T10:12:02.905Z,41.72
2023-05-15T10:14:31.495Z,39.42
2023-05-15T10:16:58.080Z,45.77
2023-05-15T10:19:27.580Z,40.83
2023-05-15T10:21:58.621Z,36.83
2023-05-15T10:24:28.359Z,39.53
2023-05-15T10:26:55.904Z,42.10
2023-05-15T10:29:26.716Z,43.13
2023-05-15T10:31:54.061Z,40.35
2023-05-15T10:34:21.381Z,40.03
2023-05-15T10:36:49.822Z,41.25
2023-05-15T10:39:16.804Z,42.97
2023-05-15T10:41:45.857Z,42.28
2023-05-15T10:44:14.754Z,42.83
2023-05-15T10:46:41.517Z,37.90
2023-05-15T10:49:08.342Z,37.28
2023-05-15T10:51:37.626Z,38.83
2023-05-15T10:54:04.373Z,37.53
2023-05-15T10:56:32.276Z,38.80
2023-05-15T10:59:06.038Z,37.85
2023-05-15T11:01:35.658Z,37.95
2023-05-15T11:04:12.102Z,33.55
2023-05-15T11:06:44.296Z,38.83
2023-05-15T11:09:36.305Z,34.65
2023-05-15T11:12:04.729Z,34.95
2023-05-15T11:14:33.988Z,37.70
2023-05-15T11:19:58.237Z,35.45
2023-05-15T11:22:28.945Z,35.47
2023-05-15T11:24:58.412Z,35.42
2023-05-15T11:27:27.118Z,33.97
2023-05-15T11:30:21.884Z,30.83
2023-05-15T11:32:48.470Z,32.92
2023-05-15T11:35:23.118Z,35.15
2023-05-15T11:38:11.025Z,32.08
2023-05-15T11:40:56.462Z,31.48
2023-05-15T11:43:27.898Z,32.90
2023-05-15T11:45:58.431Z,30.95
2023-05-15T11:48:31.368Z,31.40
2023-05-15T11:50:58.100Z,29.73
2023-05-15T11:53:25.118Z,28.23
2023-05-15T11:55:54.143Z,29.50
2023-05-15T11:58:22.510Z,26.38
2023-05-15T12:00:51.368Z,24.00
2023-05-15T12:03:23.952Z,28.25
2023-05-15T12:05:58.908Z,27.60
2023-05-15T12:08:32.003Z,23.70
2023-05-15T12:10:59.191Z,27.70
2023-05-15T12:13:26.082Z,25.05
2023-05-15T12:15:55.338Z,22.58
2023-05-15T12:20:51.233Z,25.95
2023-05-15T12:23:18.053Z,26.88
2023-05-15T12:25:47.347Z,27.38
2023-05-15T12:30:42.903Z,26.48
2023-05-15T12:33:10.810Z,23.00
2023-05-15T12:35:42.360Z,23.98
2023-05-15T12:38:13.890Z,26.02
2023-05-15T12:40:40.840Z,23.30
2023-05-15T12:43:08.378Z,22.65
2023-05-15T12:45:41.362Z,20.80
2023-05-15T12:48:08.141Z,21.88
2023-05-15T12:50:35.840Z,22.65
2023-05-15T12:53:04.626Z,26.42
2023-05-15T12:55:36.596Z,20.63
2023-05-15T12:58:12.413Z,18.80
2023-05-15T13:00:41.611Z,22.65
2023-05-15T13:03:10.957Z,21.67
2023-05-15T13:05:38.727Z,26.55
2023-05-15T13:08:09.099Z,21.20
2023-05-15T13:10:38.042Z,20.98
2023-05-15T13:13:04.677Z,18.45
2023-05-15T13:15:36.278Z,24.27
2023-05-15T13:18:07.937Z,19.60
2023-05-15T13:20:37.242Z,24.38
2023-05-15T13:25:32.173Z,19.73
2023-05-15T13:28:01.683Z,18.13
2023-05-15T13:32:55.911Z,17.15
2023-05-15T13:35:23.505Z,22.15
2023-05-15T13:37:50.337Z,15.10
2023-05-15T13:40:17.175Z,20.80
2023-05-15T13:42:44.311Z,16.20
2023-05-15T13:45:15.429Z,19.40
2023-05-15T13:47:43.196Z,20.95
2023-05-15T13:50:12.320Z,15.85
2023-05-15T13:52:40.143Z,13.85
2023-05-15T13:55:09.764Z,12.50
2023-05-15T13:57:37.982Z,12.40
2023-05-15T14:00:13.179Z,12.60
2023-05-15T14:02:41.617Z,15.85
2023-05-15T14:05:09.278Z,12.60
2023-05-15T14:07:36.321Z,17.00
2023-05-15T14:10:04.011Z,12.30
2023-05-15T14:12:31.046Z,13.93
2023-05-15T14:14:57.967Z,16.80
2023-05-15T14:17:24.977Z,15.73
2023-05-15T14:19:52.112Z,14.98
2023-05-15T14:22:18.778Z,17.33
2023-05-15T14:24:45.411Z,16.15
2023-05-15T14:27:12.002Z,15.95
2023-05-15T14:29:39.443Z,13.77
2023-05-15T14:32:06.579Z,19.70
2023-05-15T14:34:34.029Z,14.57
2023-05-15T14:37:00.664Z,11.70
2023-05-15T14:39:27.284Z,15.05
2023-05-15T14:41:53.886Z,17.70
2023-05-15T14:44:20.605Z,14.48
2023-05-15T14:46:47.290Z,17.50
2023-05-15T14:49:14.118Z,15.10
2023-05-15T14:51:40.750Z,14.07
2023-05-15T14:54:07.394Z,11.40
2023-05-15T14:56:33.976Z,14.50
2023-05-15T14:59:01.047Z,10.23
2023-05-15T15:01:27.665Z,9.82
2023-05-15T15:03:54.447Z,12.75
2023-05-15T15:06:21.219Z,10.90
2023-05-15T15:08:47.811Z,12.93
2023-05-15T15:11:14.500Z,12.32
2023-05-15T15:13:41.131Z,14.00
2023-05-15T15:16:08.254Z,14.48
2023-05-15T15:18:34.976Z,11.93
2023-05-15T15:21:01.892Z,13.65
2023-05-15T15:23:28.535Z,10.68
2023-05-15T15:25:55.200Z,7.78
2023-05-15T15:28:21.741Z,10.43
2023-05-15T15:30:48.385Z,9.25
2023-05-15T15:33:15.086Z,7.70
2023-05-15T15:35:41.835Z,10.13
2023-05-15T15:38:11.411Z,7.80
2023-05-15T15:40:37.993Z,9.80
2023-05-15T15:43:04.579Z,7.07
2023-05-15T15:45:31.288Z,6.95
2023-05-15T15:47:57.879Z,7.28
2023-05-15T15:50:24.807Z,7.65
2023-05-15T15:52:51.711Z,7.25
2023-05-15T15:55:18.302Z,8.13
2023-05-15T15:57:45.093Z,6.78
2023-05-15T16:00:12.796Z,7.82
2023-05-15T16:02:42.371Z,7.20
2023-05-15T16:05:09.800Z,8.23
2023-05-15T16:07:37.008Z,6.43
2023-05-15T16:10:12.266Z,4.75
2023-05-15T16:12:40.724Z,8.73
2023-05-15T16:15:21.001Z,7.45
2023-05-15T16:17:52.767Z,8.40
2023-05-15T16:20:20.106Z,9.07
2023-05-15T16:22:46.704Z,5.72
2023-05-15T16:25:13.315Z,8.85
2023-05-15T16:27:39.875Z,9.27
2023-05-15T16:30:07.254Z,8.48
2023-05-15T16:32:34.161Z,9.30
2023-05-15T16:35:01.161Z,9.50
2023-05-15T16:37:28.934Z,13.80
2023-05-15T16:39:55.579Z,10.68
2023-05-15T16:42:22.155Z,12.35
2023-05-15T16:44:51.117Z,9.57
2023-05-15T16:47:17.889Z,11.25
2023-05-15T16:49:45.717Z,8.00
2023-05-15T16:52:13.569Z,8.43
2023-05-15T16:54:41.920Z,9.48
2023-05-15T16:57:08.708Z,8.17
2023-05-15T16:59:35.402Z,8.25
2023-05-15T17:02:02.065Z,6.13
2023-05-15T17:04:33.124Z,8.52
2023-05-15T17:06:59.906Z,8.82
2023-05-15T17:09:26.562Z,6.43
2023-05-15T17:11:53.129Z,7.95
2023-05-15T17:14:19.726Z,6.30
2023-05-15T17:16:46.373Z,8.55
2023-05-15T17:19:13.183Z,6.07
2023-05-15T17:21:39.931Z,12.73
2023-05-15T17:24:06.758Z,5.95
2023-05-15T17:26:33.486Z,8.85
2023-05-15T17:29:00.265Z,10.38
2023-05-15T17:31:29.118Z,9.02
2023-05-15T17:33:55.721Z,7.72
2023-05-15T17:36:22.286Z,9.07
2023-05-15T17:38:48.857Z,9.80
2023-05-15T17:41:15.548Z,7.40
2023-05-15T17:43:42.087Z,9.10
2023-05-15T17:46:08.711Z,9.32
2023-05-15T17:48:36.161Z,7.03
2023-05-15T17:51:02.773Z,8.82
2023-05-15T17:53:29.368Z,11.35
2023-05-15T17:55:55.993Z,7.47
2023-05-15T17:58:22.741Z,9.60
2023-05-15T18:00:51.700Z,9.95
2023-05-15T18:03:18.413Z,12.70
2023-05-15T18:05:46.980Z,14.18
2023-05-15T18:08:14.049Z,10.25
2023-05-15T18:10:40.674Z,13.10
2023-05-15T18:13:07.277Z,7.97
2023-05-15T18:15:35.163Z,8.48
2023-05-15T18:18:02.291Z,8.00
2023-05-15T18:20:29.053Z,8.60
2023-05-15T18:22:55.706Z,8.10
2023-05-15T18:25:22.329Z,5.85
2023-05-15T18:27:48.928Z,4.78
2023-05-15T18:30:18.693Z,6.43
2023-05-15T18:32:45.321Z,7.72
2023-05-15T18:35:12.636Z,5.80
2023-05-15T18:37:39.252Z,7.03
2023-05-15T18:40:06.398Z,7.25
2023-05-15T18:42:32.976Z,7.55
2023-05-15T18:44:59.617Z,9.00
2023-05-15T18:47:26.341Z,8.00
2023-05-15T18:49:52.968Z,8.27
2023-05-15T18:52:20.047Z,8.35
2023-05-15T18:54:47.806Z,9.23
2023-05-15T18:57:14.603Z,6.88
2023-05-15T18:59:41.715Z,8.18
2023-05-15T19:02:09.585Z,9.27
2023-05-15T19:04:36.424Z,12.68
2023-05-15T19:07:03.087Z,11.57
2023-05-15T19:09:29.695Z,8.35
2023-05-15T19:11:56.375Z,9.60
2023-05-15T19:14:22.898Z,9.23
2023-05-15T19:16:49.619Z,9.30
2023-05-15T19:19:16.855Z,11.18
2023-05-15T19:21:43.725Z,10.20
2023-05-15T19:24:10.446Z,10.20
2023-05-15T19:26:36.971Z,13.32
2023-05-15T19:29:03.596Z,10.75
2023-05-15T19:31:31.742Z,11.05
2023-05-15T19:33:59.198Z,11.15
2023-05-15T19:36:25.924Z,11.55
2023-05-15T19:38:52.671Z,12.80
2023-05-15T19:41:19.386Z,10.48
2023-05-15T19:43:46.980Z,13.98
2023-05-15T19:46:13.864Z,9.70
2023-05-15T19:48:40.786Z,12.70
2023-05-15T19:51:07.404Z,11.68
2023-05-15T19:53:34.511Z,14.50
2023-05-15T19:56:01.324Z,16.73
2023-05-15T19:58:27.868Z,11.88
2023-05-15T20:00:54.763Z,11.48
2023-05-15T20:03:22.175Z,11.20
2023-05-15T20:05:48.863Z,11.90
2023-05-15T20:08:17.067Z,18.55
2023-05-15T20:10:44.515Z,15.75
2023-05-15T20:13:11.631Z,13.55
2023-05-15T20:15:39.822Z,14.23
2023-05-15T20:18:07.279Z,11.35
2023-05-15T20:20:35.713Z,12.93
2023-05-15T20:23:02.317Z,14.57
2023-05-15T20:25:29.467Z,14.30
2023-05-15T20:27:58.469Z,15.27
2023-05-15T20:30:27.092Z,14.70
2023-05-15T20:32:53.947Z,13.27
2023-05-15T20:35:20.823Z,13.50
2023-05-15T20:37:47.582Z,15.10
2023-05-15T20:40:15.747Z,13.15
2023-05-15T20:42:43.061Z,13.73
2023-05-15T20:45:10.191Z,16.10
2023-05-15T20:47:36.829Z,12.75
2023-05-15T20:50:03.668Z,14.25
2023-05-15T20:52:30.695Z,14.02
2023-05-15T20:54:57.374Z,13.18
2023-05-15T20:57:24.012Z,13.27
2023-05-15T20:59:50.627Z,14.18
2023-05-15T21:02:17.246Z,14.13
2023-05-15T21:04:44.027Z,15.32
2023-05-15T21:07:11.027Z,16.90
2023-05-15T21:09:37.583Z,13.93
2023-05-15T21:12:04.444Z,13.90
2023-05-15T21:14:31.083Z,11.82
2023-05-15T21:16:57.797Z,16.27
2023-05-15T21:19:24.547Z,13.40
2023-05-15T21:21:51.289Z,16.00
2023-05-15T21:24:18.072Z,12.98
2023-05-15T21:26:44.834Z,17.20
2023-05-15T21:29:11.525Z,14.07
2023-05-15T21:31:38.484Z,16.45
2023-05-15T21:34:05.255Z,14.27
2023-05-15T21:36:31.837Z,15.18
2023-05-15T21:38:58.393Z,19.08
2023-05-15T21:41:26.124Z,17.42
2023-05-15T21:43:53.102Z,16.25
2023-05-15T21:46:19.830Z,15.45
2023-05-15T21:48:46.884Z,13.38
2023-05-15T21:51:13.471Z,13.52
2023-05-15T21:53:40.153Z,14.27
2023-05-15T21:56:07.292Z,16.83
2023-05-15T21:58:33.981Z,18.02
2023-05-15T22:01:00.553Z,16.77
2023-05-15T22:03:27.630Z,16.40
2023-05-15T22:05:54.314Z,16.90
2023-05-15T22:08:21.489Z,19.50
2023-05-15T22:10:49.027Z,14.70
2023-05-15T22:13:15.812Z,17.30
2023-05-15T22:15:42.847Z,14.35
2023-05-15T22:18:09.547Z,17.50
2023-05-15T22:20:36.210Z,18.95
2023-05-15T22:23:02.918Z,19.48
2023-05-15T22:25:29.636Z,18.00
2023-05-15T22:27:56.424Z,18.48
2023-05-15T22:30:23.084Z,19.23
2023-05-15T22:32:49.756Z,18.27
2023-05-15T22:35:16.551Z,23.92
2023-05-15T22:37:45.310Z,22.77
2023-05-15T22:40:15.462Z,26.50
2023-05-15T22:42:42.028Z,24.85
2023-05-15T22:45:09.425Z,30.30
2023-05-15T22:47:36.158Z,30.85
2023-05-15T22:50:02.839Z,29.55
2023-05-15T22:52:29.361Z,28.33
2023-05-15T22:54:55.944Z,26.83
2023-05-15T22:57:23.143Z,30.33
2023-05-15T22:59:49.720Z,26.17
2023-05-15T23:02:16.480Z,24.92
2023-05-15T23:04:43.338Z,26.48
2023-05-15T23:07:09.917Z,25.48
2023-05-15T23:09:36.573Z,24.27
2023-05-15T23:12:04.393Z,21.40
2023-05-15T23:14:31.207Z,22.38
2023-05-15T23:16:57.803Z,19.17
2023-05-15T23:19:24.423Z,20.17
2023-05-15T23:21:51.106Z,19.23
2023-05-15T23:24:17.763Z,18.00
2023-05-15T23:26:44.417Z,17.38
2023-05-15T23:29:11.265Z,18.95
2023-05-15T23:31:39.105Z,20.52
2023-05-15T23:34:06.572Z,23.00
2023-05-15T23:36:33.066Z,20.92
2023-05-15T23:38:59.622Z,16.88
2023-05-15T23:41:26.340Z,21.48
2023-05-15T23:43:52.974Z,20.45
2023-05-15T23:46:19.782Z,18.40
2023-05-15T23:48:46.485Z,18.02
2023-05-15T23:51:13.191Z,19.75
2023-05-15T23:53:39.783Z,19.00
2023-05-15T23:56:07.293Z,15.65
2023-05-15T23:58:34.083Z,13.50
